createdAt,value
2024-03-02T00:01:57.060Z,4.43
2024-03-02T00:07:03.403Z,5.50
2024-03-02T00:12:07.740Z,6.40
2024-03-02T00:17:27.210Z,5.13
2024-03-02T00:22:36.119Z,5.35
2024-03-02T00:27:39.917Z,6.28
2024-03-02T00:32:44.940Z,6.20
2024-03-02T00:37:50.962Z,4.97
2024-03-02T00:42:54.651Z,5.72
2024-03-02T00:47:57.921Z,5.93
2024-03-02T00:53:04.266Z,4.47
2024-03-02T00:58:06.986Z,4.68
2024-03-02T01:03:10.022Z,5.78
2024-03-02T01:08:16.099Z,6.82
2024-03-02T01:13:19.036Z,4.80
2024-03-02T01:18:21.807Z,5.38
2024-03-02T01:23:29.885Z,5.57
2024-03-02T01:28:32.522Z,6.68
2024-03-02T01:33:35.425Z,5.40
2024-03-02T01:38:40.777Z,5.05
2024-03-02T01:43:46.102Z,5.05
2024-03-02T01:48:49.633Z,5.70
2024-03-02T01:53:55.590Z,6.65
2024-03-02T01:58:59.968Z,5.55
2024-03-02T02:04:03.344Z,7.35
2024-03-02T02:09:09.624Z,5.57
2024-03-02T02:14:13.153Z,7.20
2024-03-02T02:19:16.528Z,5.07
2024-03-02T02:24:23.695Z,5.10
2024-03-02T02:29:28.223Z,6.18
2024-03-02T02:34:32.384Z,5.18
2024-03-02T02:39:38.456Z,4.90
2024-03-02T02:44:41.902Z,4.97
2024-03-02T02:49:45.317Z,6.07
2024-03-02T02:54:51.395Z,4.60
2024-03-02T02:59:54.705Z,5.40
2024-03-02T03:04:58.691Z,4.70
2024-03-02T03:10:06.784Z,3.85
2024-03-02T03:15:12.877Z,4.50
2024-03-02T03:20:16.948Z,5.88
2024-03-02T03:25:22.947Z,3.50
2024-03-02T03:30:28.029Z,4.10
2024-03-02T03:35:31.596Z,6.90
2024-03-02T03:40:38.403Z,3.70
2024-03-02T03:45:43.036Z,3.63
2024-03-02T03:50:47.736Z,3.30
2024-03-02T03:55:53.660Z,4.45
2024-03-02T04:00:58.461Z,4.40
2024-03-02T04:06:01.896Z,4.53
2024-03-02T04:11:09.243Z,4.50
2024-03-02T04:16:13.532Z,4.00
2024-03-02T04:21:17.267Z,3.55
2024-03-02T04:26:23.758Z,3.95
2024-03-02T04:31:28.631Z,3.53
2024-03-02T04:36:32.101Z,3.72
2024-03-02T04:41:38.031Z,4.22
2024-03-02T04:46:41.767Z,3.08
2024-03-02T04:51:45.301Z,3.05
2024-03-02T04:56:51.967Z,3.92
2024-03-02T05:02:15.434Z,6.18
2024-03-02T05:07:17.996Z,5.28
2024-03-02T05:12:41.989Z,3.58
2024-03-02T05:17:44.692Z,4.25
2024-03-02T05:22:48.443Z,4.18
2024-03-02T05:27:53.594Z,3.88
2024-03-02T05:32:56.116Z,5.55
2024-03-02T05:37:58.660Z,3.95
2024-03-02T05:43:04.151Z,4.20
2024-03-02T05:48:08.907Z,3.70
2024-03-02T05:53:11.447Z,4.28
2024-03-02T05:58:32.861Z,4.75
2024-03-02T06:03:36.234Z,3.53
2024-03-02T06:08:39.231Z,3.03
2024-03-02T06:13:44.443Z,4.22
2024-03-02T06:18:46.955Z,4.10
2024-03-02T06:23:49.513Z,4.30
2024-03-02T06:28:54.678Z,4.43
2024-03-02T06:33:57.275Z,4.35
2024-03-02T06:38:59.822Z,5.10
2024-03-02T06:44:05.306Z,4.95
2024-03-02T06:49:07.810Z,3.30
2024-03-02T06:54:10.395Z,3.83
2024-03-02T06:59:15.746Z,4.00
2024-03-02T07:04:20.009Z,4.85
2024-03-02T07:09:24.309Z,4.80
2024-03-02T07:14:49.589Z,3.92
2024-03-02T07:19:52.197Z,6.40
2024-03-02T07:24:54.772Z,3.63
2024-03-02T07:29:59.875Z,7.78
2024-03-02T07:35:02.850Z,4.40
2024-03-02T07:40:06.294Z,3.38
2024-03-02T07:45:11.652Z,4.65
2024-03-02T07:50:14.417Z,3.70
2024-03-02T07:55:17.970Z,4.38
2024-03-02T08:00:24.347Z,3.60
2024-03-02T08:05:28.846Z,3.65
2024-03-02T08:10:31.424Z,5.45
2024-03-02T08:15:36.700Z,3.83
2024-03-02T08:20:40.103Z,2.35
2024-03-02T08:25:43.174Z,5.82
2024-03-02T08:30:50.567Z,3.15
2024-03-02T08:35:53.387Z,1.85
2024-03-02T08:40:55.969Z,4.78
2024-03-02T08:46:01.192Z,2.83
2024-03-02T08:51:05.988Z,4.60
2024-03-02T08:56:08.860Z,2.10
2024-03-02T09:01:34.553Z,2.20
2024-03-02T09:06:39.787Z,2.58
2024-03-02T09:11:42.590Z,2.58
2024-03-02T09:17:08.407Z,2.72
2024-03-02T09:22:11.235Z,1.20
2024-03-02T09:27:14.048Z,2.75
2024-03-02T09:32:39.806Z,3.50
2024-03-02T09:37:42.449Z,1.27
2024-03-02T09:42:46.743Z,1.85
2024-03-02T09:47:58.169Z,1.40
2024-03-02T09:53:01.990Z,4.50
2024-03-02T09:58:05.280Z,1.38
2024-03-02T10:03:34.387Z,2.80
2024-03-02T10:08:45.515Z,1.52
2024-03-02T10:13:48.407Z,2.20
2024-03-02T10:19:24.672Z,1.63
2024-03-02T10:24:47.656Z,1.88
2024-03-02T10:29:53.584Z,2.10
2024-03-02T10:35:19.362Z,1.30
2024-03-02T10:46:36.688Z,2.78
2024-03-02T10:51:41.966Z,2.00
2024-03-02T10:57:08.561Z,1.90
2024-03-02T11:02:32.244Z,2.28
2024-03-02T11:07:39.906Z,3.90
2024-03-02T11:12:53.573Z,2.08
2024-03-02T11:18:17.985Z,2.55
2024-03-02T11:23:33.967Z,2.25
2024-03-02T11:28:58.553Z,1.17
2024-03-02T11:34:19.798Z,2.35
2024-03-02T11:39:45.765Z,2.53
2024-03-02T11:45:10.508Z,3.58
2024-03-02T11:50:30.620Z,3.47
2024-03-02T11:55:57.014Z,1.95
2024-03-02T12:01:02.166Z,3.63
2024-03-02T12:06:06.160Z,2.97
2024-03-02T12:11:16.782Z,1.67
2024-03-02T12:16:25.352Z,2.03
2024-03-02T12:21:27.987Z,3.57
2024-03-02T12:26:54.360Z,2.70
2024-03-02T12:31:57.069Z,1.70
2024-03-02T12:37:01.122Z,1.38
2024-03-02T12:42:26.804Z,2.35
2024-03-02T12:47:29.377Z,2.95
2024-03-02T12:52:33.663Z,2.83
2024-03-02T12:58:00.671Z,8.10
2024-03-02T13:03:04.933Z,2.55
2024-03-02T13:08:08.461Z,4.18
2024-03-02T13:13:26.149Z,2.88
2024-03-02T13:18:34.399Z,2.80
2024-03-02T13:23:38.111Z,3.95
2024-03-02T13:28:43.369Z,5.80
2024-03-02T13:34:06.212Z,4.30
2024-03-02T13:39:11.429Z,4.35
2024-03-02T13:44:37.096Z,4.53
2024-03-02T13:50:00.057Z,4.20
2024-03-02T13:55:03.575Z,3.75
2024-03-02T14:00:13.637Z,4.15
2024-03-02T14:05:16.571Z,3.85
2024-03-02T14:10:39.463Z,4.53
2024-03-02T14:15:45.187Z,4.78
2024-03-02T14:21:07.838Z,3.03
2024-03-02T14:26:11.498Z,3.65
2024-03-02T14:31:36.811Z,4.28
2024-03-02T14:36:40.045Z,5.80
2024-03-02T14:42:05.132Z,2.70
2024-03-02T14:47:33.005Z,1.92
2024-03-02T14:52:35.788Z,4.53
2024-03-02T14:57:41.945Z,3.05
2024-03-02T15:03:10.215Z,3.90
2024-03-02T15:13:16.639Z,2.85
2024-03-02T15:18:41.994Z,2.72
2024-03-02T15:23:45.021Z,4.18
2024-03-02T15:29:00.347Z,3.42
2024-03-02T15:39:15.128Z,3.03
2024-03-02T15:44:18.330Z,5.75
2024-03-02T15:49:43.670Z,3.78
2024-03-02T15:54:46.303Z,3.03
2024-03-02T16:00:21.477Z,4.55
2024-03-02T16:05:46.649Z,3.88
2024-03-02T16:10:49.279Z,4.05
2024-03-02T16:15:51.953Z,6.05
2024-03-02T16:21:17.520Z,4.78
2024-03-02T16:26:20.126Z,5.47
2024-03-02T16:31:23.427Z,6.07
2024-03-02T16:36:39.413Z,6.40
2024-03-02T16:42:04.027Z,4.75
2024-03-02T16:47:06.765Z,4.72
2024-03-02T16:52:32.478Z,4.72
2024-03-02T16:57:55.197Z,11.68
2024-03-02T17:02:57.965Z,4.70
2024-03-02T17:08:23.165Z,5.07
2024-03-02T17:13:25.752Z,6.07
2024-03-02T17:18:28.351Z,5.72
2024-03-02T17:23:59.632Z,8.25
2024-03-02T17:29:02.253Z,6.80
2024-03-02T17:34:05.685Z,6.10
2024-03-02T17:39:30.843Z,7.30
2024-03-02T17:44:33.411Z,6.63
2024-03-02T17:49:36.148Z,6.38
2024-03-02T17:55:01.546Z,5.68
2024-03-02T18:00:05.181Z,5.82
2024-03-02T18:05:14.624Z,6.10
2024-03-02T18:10:19.957Z,5.55
2024-03-02T18:15:42.605Z,7.63
2024-03-02T18:20:46.302Z,6.78
2024-03-02T18:25:51.988Z,6.95
2024-03-02T18:30:54.927Z,7.75
2024-03-02T18:36:19.319Z,9.40
2024-03-02T18:41:24.442Z,14.02
2024-03-02T18:46:26.970Z,9.02
2024-03-02T18:51:29.779Z,8.10
2024-03-02T18:56:56.314Z,10.02
2024-03-02T19:02:18.956Z,11.48
2024-03-02T19:07:41.513Z,10.93
2024-03-02T19:12:49.071Z,11.13
2024-03-02T19:18:11.606Z,7.68
2024-03-02T19:23:21.435Z,9.25
2024-03-02T19:28:50.737Z,7.18
2024-03-02T19:33:53.372Z,6.70
2024-03-02T19:38:56.723Z,7.18
2024-03-02T19:44:04.847Z,18.65
2024-03-02T19:49:27.522Z,19.00
2024-03-02T19:54:33.428Z,9.15
2024-03-02T19:59:40.266Z,7.60
2024-03-02T20:05:02.794Z,10.02
2024-03-02T20:10:07.813Z,9.65
2024-03-02T20:15:19.802Z,8.50
2024-03-02T20:20:25.288Z,8.57
2024-03-02T20:25:27.777Z,7.95
2024-03-02T20:30:33.198Z,8.10
2024-03-02T20:35:35.784Z,7.03
2024-03-02T20:40:48.136Z,7.65
2024-03-02T20:46:15.010Z,7.25
2024-03-02T20:51:17.732Z,7.70
2024-03-02T20:56:20.480Z,8.13
2024-03-02T21:01:48.389Z,6.22
2024-03-02T21:06:51.266Z,6.32
2024-03-02T21:11:53.955Z,6.35
2024-03-02T21:16:59.320Z,6.32
2024-03-02T21:22:23.120Z,6.47
2024-03-02T21:27:25.737Z,7.13
2024-03-02T21:32:33.683Z,5.32
2024-03-02T21:37:36.238Z,7.07
2024-03-02T21:42:58.807Z,6.50
2024-03-02T21:53:16.733Z,5.05
2024-03-02T21:58:19.322Z,5.30
2024-03-02T22:03:46.873Z,5.78
2024-03-02T22:08:55.075Z,5.20
2024-03-02T22:13:57.737Z,4.82
2024-03-02T22:19:02.857Z,6.18
2024-03-02T22:24:26.337Z,7.05
2024-03-02T22:29:29.238Z,5.00
2024-03-02T22:34:34.664Z,7.05
2024-03-02T22:39:37.217Z,7.57
2024-03-02T22:44:59.874Z,6.50
2024-03-02T22:50:07.125Z,7.60
2024-03-02T22:55:11.856Z,6.63
2024-03-02T23:00:34.594Z,8.32
2024-03-02T23:05:39.999Z,7.07
2024-03-02T23:10:43.273Z,7.45
2024-03-02T23:15:45.871Z,7.88
2024-03-02T23:21:11.108Z,6.78
2024-03-02T23:26:13.784Z,7.10
2024-03-02T23:31:17.018Z,8.05
2024-03-02T23:36:22.401Z,8.70
2024-03-02T23:41:44.814Z,7.78
2024-03-02T23:46:47.440Z,8.90
2024-03-02T23:51:53.282Z,10.43
2024-03-02T23:56:55.814Z,10.25
